sensor_id;sensor_type;location;lat;lon;timestamp;P1;durP1;ratioP1;P2;durP2;ratioP2
68655;SDS011;55638;51.122;13.606;2024-03-23T00:54:19;8.80;;;6.00;;
68655;SDS011;55638;51.122;13.606;2024-03-23T00:55:50;8.82;;;6.13;;
68655;SDS011;55638;51.122;13.606;2024-03-23T00:57:21;8.95;;;6.15;;
68655;SDS011;55638;51.122;13.606;2024-03-23T00:58:51;9.32;;;6.68;;
68655;SDS011;55638;51.122;13.606;2024-03-23T01:00:22;10.57;;;6.82;;
68655;SDS011;55638;51.122;13.606;2024-03-23T01:01:53;9.38;;;6.43;;
68655;SDS011;55638;51.122;13.606;2024-03-23T01:03:24;10.27;;;6.80;;
68655;SDS011;55638;51.122;13.606;2024-03-23T01:04:54;9.40;;;6.25;;
68655;SDS011;55638;51.122;13.606;2024-03-23T01:06:25;9.27;;;6.40;;
68655;SDS011;55638;51.122;13.606;2024-03-23T01:07:56;10.13;;;6.75;;
68655;SDS011;55638;51.122;13.606;2024-03-23T01:09:27;8.07;;;6.03;;
68655;SDS011;55638;51.122;13.606;2024-03-23T01:10:58;9.25;;;6.15;;
68655;SDS011;55638;51.122;13.606;2024-03-23T01:12:30;11.70;;;6.70;;
68655;SDS011;55638;51.122;13.606;2024-03-23T01:14:01;11.23;;;7.65;;
68655;SDS011;55638;51.122;13.606;2024-03-23T01:15:31;10.23;;;6.65;;
68655;SDS011;55638;51.122;13.606;2024-03-23T01:17:02;11.20;;;8.02;;
68655;SDS011;55638;51.122;13.606;2024-03-23T01:18:33;13.90;;;8.88;;
68655;SDS011;55638;51.122;13.606;2024-03-23T01:20:04;14.25;;;8.50;;
68655;SDS011;55638;51.122;13.606;2024-03-23T01:21:36;14.27;;;8.45;;
68655;SDS011;55638;51.122;13.606;2024-03-23T01:23:07;12.88;;;8.43;;
68655;SDS011;55638;51.122;13.606;2024-03-23T01:24:38;18.33;;;10.68;;
68655;SDS011;55638;51.122;13.606;2024-03-23T01:26:08;15.95;;;8.98;;
68655;SDS011;55638;51.122;13.606;2024-03-23T01:27:39;14.13;;;9.05;;
68655;SDS011;55638;51.122;13.606;2024-03-23T01:29:10;11.57;;;7.90;;
68655;SDS011;55638;51.122;13.606;2024-03-23T01:30:42;13.02;;;8.40;;
68655;SDS011;55638;51.122;13.606;2024-03-23T01:32:12;13.73;;;8.50;;
68655;SDS011;55638;51.122;13.606;2024-03-23T01:33:43;12.38;;;8.63;;
68655;SDS011;55638;51.122;13.606;2024-03-23T01:35:14;13.82;;;9.35;;
68655;SDS011;55638;51.122;13.606;2024-03-23T01:36:45;11.07;;;7.88;;
68655;SDS011;55638;51.122;13.606;2024-03-23T01:38:16;12.35;;;8.70;;
68655;SDS011;55638;51.122;13.606;2024-03-23T01:39:47;12.00;;;8.20;;
68655;SDS011;55638;51.122;13.606;2024-03-23T01:41:18;13.63;;;9.32;;
68655;SDS011;55638;51.122;13.606;2024-03-23T01:42:55;14.93;;;10.27;;
68655;SDS011;55638;51.122;13.606;2024-03-23T01:44:29;15.00;;;9.88;;
68655;SDS011;55638;51.122;13.606;2024-03-23T01:46:00;14.90;;;9.50;;
68655;SDS011;55638;51.122;13.606;2024-03-23T01:47:31;12.48;;;8.27;;
68655;SDS011;55638;51.122;13.606;2024-03-23T01:49:01;14.60;;;9.48;;
68655;SDS011;55638;51.122;13.606;2024-03-23T01:50:33;14.25;;;9.40;;
68655;SDS011;55638;51.122;13.606;2024-03-23T01:53:35;12.45;;;8.68;;
68655;SDS011;55638;51.122;13.606;2024-03-23T01:55:06;14.35;;;9.45;;
68655;SDS011;55638;51.122;13.606;2024-03-23T01:58:08;14.38;;;9.23;;
68655;SDS011;55638;51.122;13.606;2024-03-23T01:59:39;15.13;;;9.65;;
68655;SDS011;55638;51.122;13.606;2024-03-23T02:01:11;15.77;;;10.10;;
68655;SDS011;55638;51.122;13.606;2024-03-23T02:02:43;15.10;;;9.65;;
68655;SDS011;55638;51.122;13.606;2024-03-23T02:04:14;14.30;;;9.48;;
68655;SDS011;55638;51.122;13.606;2024-03-23T02:05:45;13.02;;;9.40;;
68655;SDS011;55638;51.122;13.606;2024-03-23T02:07:15;14.52;;;10.40;;
68655;SDS011;55638;51.122;13.606;2024-03-23T02:08:46;14.60;;;10.02;;
68655;SDS011;55638;51.122;13.606;2024-03-23T02:10:17;14.80;;;9.88;;
68655;SDS011;55638;51.122;13.606;2024-03-23T02:11:48;14.52;;;10.18;;
68655;SDS011;55638;51.122;13.606;2024-03-23T02:13:18;14.98;;;10.38;;
68655;SDS011;55638;51.122;13.606;2024-03-23T02:14:49;16.77;;;10.40;;
68655;SDS011;55638;51.122;13.606;2024-03-23T02:16:20;14.57;;;10.23;;
68655;SDS011;55638;51.122;13.606;2024-03-23T02:17:51;14.88;;;10.63;;
68655;SDS011;55638;51.122;13.606;2024-03-23T02:19:21;16.92;;;10.45;;
68655;SDS011;55638;51.122;13.606;2024-03-23T02:20:52;13.40;;;9.05;;
68655;SDS011;55638;51.122;13.606;2024-03-23T02:22:23;14.57;;;9.52;;
68655;SDS011;55638;51.122;13.606;2024-03-23T02:23:54;13.50;;;9.13;;
68655;SDS011;55638;51.122;13.606;2024-03-23T02:25:25;15.07;;;9.35;;
68655;SDS011;55638;51.122;13.606;2024-03-23T02:26:55;13.60;;;9.20;;
68655;SDS011;55638;51.122;13.606;2024-03-23T02:28:26;13.48;;;9.77;;
68655;SDS011;55638;51.122;13.606;2024-03-23T02:29:57;16.52;;;11.13;;
68655;SDS011;55638;51.122;13.606;2024-03-23T02:31:27;16.05;;;10.82;;
68655;SDS011;55638;51.122;13.606;2024-03-23T02:32:58;16.38;;;11.00;;
68655;SDS011;55638;51.122;13.606;2024-03-23T02:34:29;14.30;;;10.27;;
68655;SDS011;55638;51.122;13.606;2024-03-23T02:36:00;13.73;;;10.20;;
68655;SDS011;55638;51.122;13.606;2024-03-23T02:37:30;14.48;;;10.07;;
68655;SDS011;55638;51.122;13.606;2024-03-23T02:39:01;12.75;;;9.40;;
68655;SDS011;55638;51.122;13.606;2024-03-23T02:40:32;15.90;;;10.55;;
68655;SDS011;55638;51.122;13.606;2024-03-23T02:42:03;14.25;;;10.20;;
68655;SDS011;55638;51.122;13.606;2024-03-23T02:43:33;16.92;;;10.65;;
68655;SDS011;55638;51.122;13.606;2024-03-23T02:45:04;13.80;;;10.20;;
68655;SDS011;55638;51.122;13.606;2024-03-23T02:46:35;17.98;;;11.35;;
68655;SDS011;55638;51.122;13.606;2024-03-23T02:48:06;15.88;;;11.40;;
68655;SDS011;55638;51.122;13.606;2024-03-23T02:49:37;16.55;;;10.77;;
68655;SDS011;55638;51.122;13.606;2024-03-23T02:51:08;16.90;;;10.93;;
68655;SDS011;55638;51.122;13.606;2024-03-23T02:52:38;15.95;;;10.93;;
68655;SDS011;55638;51.122;13.606;2024-03-23T02:54:09;15.65;;;10.77;;
68655;SDS011;55638;51.122;13.606;2024-03-23T02:55:40;15.88;;;10.80;;
68655;SDS011;55638;51.122;13.606;2024-03-23T02:57:11;16.83;;;11.02;;
68655;SDS011;55638;51.122;13.606;2024-03-23T02:58:44;16.40;;;11.25;;
68655;SDS011;55638;51.122;13.606;2024-03-23T03:00:15;17.25;;;11.40;;
68655;SDS011;55638;51.122;13.606;2024-03-23T03:01:46;15.90;;;10.57;;
68655;SDS011;55638;51.122;13.606;2024-03-23T03:03:17;16.08;;;10.70;;
68655;SDS011;55638;51.122;13.606;2024-03-23T03:04:47;18.63;;;12.27;;
68655;SDS011;55638;51.122;13.606;2024-03-23T03:06:25;18.48;;;13.15;;
68655;SDS011;55638;51.122;13.606;2024-03-23T03:07:56;19.58;;;12.55;;
68655;SDS011;55638;51.122;13.606;2024-03-23T03:09:26;18.70;;;12.10;;
68655;SDS011;55638;51.122;13.606;2024-03-23T03:10:58;18.25;;;12.27;;
68655;SDS011;55638;51.122;13.606;2024-03-23T03:12:28;18.90;;;12.93;;
68655;SDS011;55638;51.122;13.606;2024-03-23T03:13:59;17.95;;;12.40;;
68655;SDS011;55638;51.122;13.606;2024-03-23T03:15:30;16.83;;;11.27;;
68655;SDS011;55638;51.122;13.606;2024-03-23T03:17:01;19.10;;;12.57;;
68655;SDS011;55638;51.122;13.606;2024-03-23T03:18:32;17.98;;;11.70;;
68655;SDS011;55638;51.122;13.606;2024-03-23T03:20:03;17.05;;;11.43;;
68655;SDS011;55638;51.122;13.606;2024-03-23T03:21:35;16.27;;;11.20;;
68655;SDS011;55638;51.122;13.606;2024-03-23T03:23:06;17.50;;;12.32;;
68655;SDS011;55638;51.122;13.606;2024-03-23T03:24:37;16.33;;;11.00;;
68655;SDS011;55638;51.122;13.606;2024-03-23T03:26:08;18.13;;;11.50;;
68655;SDS011;55638;51.122;13.606;2024-03-23T03:27:38;16.67;;;11.55;;
68655;SDS011;55638;51.122;13.606;2024-03-23T03:29:09;14.60;;;10.07;;
68655;SDS011;55638;51.122;13.606;2024-03-23T03:30:42;13.98;;;9.82;;
68655;SDS011;55638;51.122;13.606;2024-03-23T03:32:12;15.45;;;10.38;;
68655;SDS011;55638;51.122;13.606;2024-03-23T03:33:44;16.73;;;10.95;;
68655;SDS011;55638;51.122;13.606;2024-03-23T03:35:15;15.05;;;11.00;;
68655;SDS011;55638;51.122;13.606;2024-03-23T03:36:45;15.00;;;10.40;;
68655;SDS011;55638;51.122;13.606;2024-03-23T03:38:16;17.30;;;11.65;;
68655;SDS011;55638;51.122;13.606;2024-03-23T03:39:47;17.90;;;11.82;;
68655;SDS011;55638;51.122;13.606;2024-03-23T03:41:18;17.52;;;11.60;;
68655;SDS011;55638;51.122;13.606;2024-03-23T03:42:49;13.40;;;9.82;;
68655;SDS011;55638;51.122;13.606;2024-03-23T03:44:19;14.65;;;10.57;;
68655;SDS011;55638;51.122;13.606;2024-03-23T03:45:56;15.07;;;10.38;;
68655;SDS011;55638;51.122;13.606;2024-03-23T03:47:28;15.40;;;10.52;;
68655;SDS011;55638;51.122;13.606;2024-03-23T03:48:58;14.18;;;9.93;;
68655;SDS011;55638;51.122;13.606;2024-03-23T03:50:29;13.55;;;9.93;;
68655;SDS011;55638;51.122;13.606;2024-03-23T03:52:00;15.70;;;10.05;;
68655;SDS011;55638;51.122;13.606;2024-03-23T03:53:32;14.07;;;9.85;;
68655;SDS011;55638;51.122;13.606;2024-03-23T03:55:03;15.68;;;11.10;;
68655;SDS011;55638;51.122;13.606;2024-03-23T03:56:34;17.83;;;11.35;;
68655;SDS011;55638;51.122;13.606;2024-03-23T03:58:05;17.08;;;11.40;;
68655;SDS011;55638;51.122;13.606;2024-03-23T03:59:35;17.20;;;11.07;;
68655;SDS011;55638;51.122;13.606;2024-03-23T04:01:06;16.05;;;11.15;;
68655;SDS011;55638;51.122;13.606;2024-03-23T04:02:37;14.45;;;10.82;;
68655;SDS011;55638;51.122;13.606;2024-03-23T04:04:08;16.50;;;10.93;;
68655;SDS011;55638;51.122;13.606;2024-03-23T04:05:39;18.45;;;12.18;;
68655;SDS011;55638;51.122;13.606;2024-03-23T04:07:10;18.80;;;11.80;;
68655;SDS011;55638;51.122;13.606;2024-03-23T04:08:40;17.30;;;11.77;;
68655;SDS011;55638;51.122;13.606;2024-03-23T04:10:11;19.40;;;12.43;;
68655;SDS011;55638;51.122;13.606;2024-03-23T04:11:42;15.68;;;11.68;;
68655;SDS011;55638;51.122;13.606;2024-03-23T04:13:13;18.42;;;12.43;;
68655;SDS011;55638;51.122;13.606;2024-03-23T04:14:44;19.98;;;13.73;;
68655;SDS011;55638;51.122;13.606;2024-03-23T04:16:24;18.02;;;12.52;;
68655;SDS011;55638;51.122;13.606;2024-03-23T04:17:58;18.08;;;12.02;;
68655;SDS011;55638;51.122;13.606;2024-03-23T04:19:29;18.23;;;12.20;;
68655;SDS011;55638;51.122;13.606;2024-03-23T04:21:00;18.60;;;12.23;;
68655;SDS011;55638;51.122;13.606;2024-03-23T04:22:30;20.63;;;13.05;;
68655;SDS011;55638;51.122;13.606;2024-03-23T04:24:01;18.20;;;12.05;;
68655;SDS011;55638;51.122;13.606;2024-03-23T04:25:32;18.67;;;12.52;;
68655;SDS011;55638;51.122;13.606;2024-03-23T04:27:02;21.20;;;12.40;;
68655;SDS011;55638;51.122;13.606;2024-03-23T04:28:33;17.83;;;11.80;;
68655;SDS011;55638;51.122;13.606;2024-03-23T04:30:04;17.83;;;11.98;;
68655;SDS011;55638;51.122;13.606;2024-03-23T04:31:40;16.63;;;11.13;;
68655;SDS011;55638;51.122;13.606;2024-03-23T04:33:11;16.45;;;11.18;;
68655;SDS011;55638;51.122;13.606;2024-03-23T04:34:42;16.33;;;10.93;;
68655;SDS011;55638;51.122;13.606;2024-03-23T04:36:13;18.35;;;11.75;;
68655;SDS011;55638;51.122;13.606;2024-03-23T04:37:44;18.75;;;12.13;;
68655;SDS011;55638;51.122;13.606;2024-03-23T04:39:15;16.65;;;11.40;;
68655;SDS011;55638;51.122;13.606;2024-03-23T04:40:53;15.93;;;10.68;;
68655;SDS011;55638;51.122;13.606;2024-03-23T04:42:25;16.30;;;11.10;;
68655;SDS011;55638;51.122;13.606;2024-03-23T04:43:55;15.35;;;10.70;;
68655;SDS011;55638;51.122;13.606;2024-03-23T04:45:26;16.70;;;11.20;;
68655;SDS011;55638;51.122;13.606;2024-03-23T04:46:57;17.83;;;11.60;;
68655;SDS011;55638;51.122;13.606;2024-03-23T04:48:28;16.13;;;11.35;;
68655;SDS011;55638;51.122;13.606;2024-03-23T04:49:59;17.25;;;11.50;;
68655;SDS011;55638;51.122;13.606;2024-03-23T04:51:37;21.15;;;13.30;;
68655;SDS011;55638;51.122;13.606;2024-03-23T04:53:08;20.27;;;13.93;;
68655;SDS011;55638;51.122;13.606;2024-03-23T04:54:39;20.92;;;14.18;;
68655;SDS011;55638;51.122;13.606;2024-03-23T04:56:10;20.80;;;14.15;;
68655;SDS011;55638;51.122;13.606;2024-03-23T04:57:41;17.10;;;12.48;;
68655;SDS011;55638;51.122;13.606;2024-03-23T04:59:12;19.48;;;13.23;;
68655;SDS011;55638;51.122;13.606;2024-03-23T05:00:42;19.50;;;13.13;;
68655;SDS011;55638;51.122;13.606;2024-03-23T05:02:13;16.75;;;11.68;;
68655;SDS011;55638;51.122;13.606;2024-03-23T05:03:46;19.02;;;13.40;;
68655;SDS011;55638;51.122;13.606;2024-03-23T05:05:16;20.40;;;13.93;;
68655;SDS011;55638;51.122;13.606;2024-03-23T05:06:47;21.20;;;13.80;;
68655;SDS011;55638;51.122;13.606;2024-03-23T05:08:18;20.95;;;13.52;;
68655;SDS011;55638;51.122;13.606;2024-03-23T05:09:48;20.60;;;13.32;;
68655;SDS011;55638;51.122;13.606;2024-03-23T05:11:19;18.95;;;13.60;;
68655;SDS011;55638;51.122;13.606;2024-03-23T05:12:51;19.83;;;13.25;;
68655;SDS011;55638;51.122;13.606;2024-03-23T05:15:53;17.77;;;11.37;;
68655;SDS011;55638;51.122;13.606;2024-03-23T05:17:24;20.60;;;13.35;;
68655;SDS011;55638;51.122;13.606;2024-03-23T05:18:55;19.40;;;12.32;;
68655;SDS011;55638;51.122;13.606;2024-03-23T05:20:26;18.45;;;12.48;;
68655;SDS011;55638;51.122;13.606;2024-03-23T05:21:56;20.23;;;13.48;;
68655;SDS011;55638;51.122;13.606;2024-03-23T05:23:30;23.30;;;14.85;;
68655;SDS011;55638;51.122;13.606;2024-03-23T05:25:01;21.98;;;14.68;;
68655;SDS011;55638;51.122;13.606;2024-03-23T05:26:35;20.00;;;14.02;;
68655;SDS011;55638;51.122;13.606;2024-03-23T05:29:37;19.65;;;12.77;;
68655;SDS011;55638;51.122;13.606;2024-03-23T05:31:07;19.60;;;13.43;;
68655;SDS011;55638;51.122;13.606;2024-03-23T05:32:39;20.17;;;14.20;;
68655;SDS011;55638;51.122;13.606;2024-03-23T05:34:13;22.50;;;14.77;;
68655;SDS011;55638;51.122;13.606;2024-03-23T05:35:43;21.00;;;13.93;;
68655;SDS011;55638;51.122;13.606;2024-03-23T05:37:14;20.67;;;14.10;;
68655;SDS011;55638;51.122;13.606;2024-03-23T05:38:45;21.15;;;13.77;;
68655;SDS011;55638;51.122;13.606;2024-03-23T05:40:15;21.63;;;14.75;;
68655;SDS011;55638;51.122;13.606;2024-03-23T05:41:46;20.85;;;14.02;;
68655;SDS011;55638;51.122;13.606;2024-03-23T05:43:17;21.48;;;14.63;;
68655;SDS011;55638;51.122;13.606;2024-03-23T05:44:47;23.15;;;14.90;;
68655;SDS011;55638;51.122;13.606;2024-03-23T05:46:18;21.85;;;15.15;;
68655;SDS011;55638;51.122;13.606;2024-03-23T05:47:49;25.05;;;16.10;;
68655;SDS011;55638;51.122;13.606;2024-03-23T05:49:19;23.42;;;15.18;;
68655;SDS011;55638;51.122;13.606;2024-03-23T05:50:52;23.17;;;15.15;;
68655;SDS011;55638;51.122;13.606;2024-03-23T05:52:22;21.33;;;14.55;;
68655;SDS011;55638;51.122;13.606;2024-03-23T05:53:55;24.70;;;15.45;;
68655;SDS011;55638;51.122;13.606;2024-03-23T05:55:26;24.20;;;15.93;;
68655;SDS011;55638;51.122;13.606;2024-03-23T05:56:57;23.10;;;15.77;;
68655;SDS011;55638;51.122;13.606;2024-03-23T05:58:28;26.45;;;17.20;;
68655;SDS011;55638;51.122;13.606;2024-03-23T05:59:59;24.55;;;16.83;;
68655;SDS011;55638;51.122;13.606;2024-03-23T06:01:29;25.40;;;16.25;;
68655;SDS011;55638;51.122;13.606;2024-03-23T06:03:03;23.48;;;16.15;;
68655;SDS011;55638;51.122;13.606;2024-03-23T06:04:33;25.08;;;16.27;;
68655;SDS011;55638;51.122;13.606;2024-03-23T06:06:04;22.45;;;15.75;;
68655;SDS011;55638;51.122;13.606;2024-03-23T06:07:40;23.05;;;15.95;;
68655;SDS011;55638;51.122;13.606;2024-03-23T06:09:11;23.50;;;16.08;;
68655;SDS011;55638;51.122;13.606;2024-03-23T06:10:41;24.42;;;16.63;;
68655;SDS011;55638;51.122;13.606;2024-03-23T06:12:12;23.17;;;15.65;;
68655;SDS011;55638;51.122;13.606;2024-03-23T06:13:43;25.70;;;16.05;;
68655;SDS011;55638;51.122;13.606;2024-03-23T06:15:14;24.60;;;16.33;;
68655;SDS011;55638;51.122;13.606;2024-03-23T06:16:44;22.27;;;15.90;;
68655;SDS011;55638;51.122;13.606;2024-03-23T06:18:15;24.13;;;16.23;;
68655;SDS011;55638;51.122;13.606;2024-03-23T06:19:46;25.05;;;16.88;;
68655;SDS011;55638;51.122;13.606;2024-03-23T06:22:47;23.13;;;15.83;;
68655;SDS011;55638;51.122;13.606;2024-03-23T06:24:18;26.25;;;17.02;;
68655;SDS011;55638;51.122;13.606;2024-03-23T06:25:49;24.02;;;16.02;;
68655;SDS011;55638;51.122;13.606;2024-03-23T06:27:20;25.90;;;16.75;;
68655;SDS011;55638;51.122;13.606;2024-03-23T06:28:51;23.95;;;14.63;;
68655;SDS011;55638;51.122;13.606;2024-03-23T06:30:22;23.48;;;15.25;;
68655;SDS011;55638;51.122;13.606;2024-03-23T06:31:55;21.80;;;14.73;;
68655;SDS011;55638;51.122;13.606;2024-03-23T06:33:26;23.55;;;16.05;;
68655;SDS011;55638;51.122;13.606;2024-03-23T06:34:57;22.88;;;15.68;;
68655;SDS011;55638;51.122;13.606;2024-03-23T06:36:27;23.30;;;15.23;;
68655;SDS011;55638;51.122;13.606;2024-03-23T06:37:58;24.00;;;15.75;;
68655;SDS011;55638;51.122;13.606;2024-03-23T06:39:29;24.95;;;16.13;;
68655;SDS011;55638;51.122;13.606;2024-03-23T06:41:02;26.13;;;17.35;;
68655;SDS011;55638;51.122;13.606;2024-03-23T06:42:33;25.02;;;15.73;;
68655;SDS011;55638;51.122;13.606;2024-03-23T06:44:04;26.95;;;16.52;;
68655;SDS011;55638;51.122;13.606;2024-03-23T06:45:34;23.63;;;15.88;;
68655;SDS011;55638;51.122;13.606;2024-03-23T06:47:07;25.10;;;16.15;;
68655;SDS011;55638;51.122;13.606;2024-03-23T06:48:37;26.08;;;16.55;;
68655;SDS011;55638;51.122;13.606;2024-03-23T06:50:09;21.85;;;15.25;;
68655;SDS011;55638;51.122;13.606;2024-03-23T06:51:41;25.10;;;17.02;;
68655;SDS011;55638;51.122;13.606;2024-03-23T06:53:12;27.02;;;17.25;;
68655;SDS011;55638;51.122;13.606;2024-03-23T06:54:46;25.23;;;16.65;;
68655;SDS011;55638;51.122;13.606;2024-03-23T06:56:16;26.88;;;16.67;;
68655;SDS011;55638;51.122;13.606;2024-03-23T06:57:47;24.77;;;16.52;;
68655;SDS011;55638;51.122;13.606;2024-03-23T06:59:18;24.75;;;15.25;;
68655;SDS011;55638;51.122;13.606;2024-03-23T07:00:48;24.25;;;15.93;;
68655;SDS011;55638;51.122;13.606;2024-03-23T07:02:19;24.05;;;15.93;;
68655;SDS011;55638;51.122;13.606;2024-03-23T07:03:50;24.42;;;15.35;;
68655;SDS011;55638;51.122;13.606;2024-03-23T07:05:21;21.60;;;14.73;;
68655;SDS011;55638;51.122;13.606;2024-03-23T07:06:52;20.55;;;13.35;;
68655;SDS011;55638;51.122;13.606;2024-03-23T07:08:23;22.35;;;13.38;;
68655;SDS011;55638;51.122;13.606;2024-03-23T07:09:53;22.27;;;14.30;;
68655;SDS011;55638;51.122;13.606;2024-03-23T07:11:24;24.25;;;14.88;;
68655;SDS011;55638;51.122;13.606;2024-03-23T07:12:56;20.30;;;14.07;;
68655;SDS011;55638;51.122;13.606;2024-03-23T07:14:27;21.90;;;14.52;;
68655;SDS011;55638;51.122;13.606;2024-03-23T07:15:58;21.30;;;13.95;;
68655;SDS011;55638;51.122;13.606;2024-03-23T07:17:30;21.42;;;14.18;;
68655;SDS011;55638;51.122;13.606;2024-03-23T07:19:03;21.90;;;14.55;;
68655;SDS011;55638;51.122;13.606;2024-03-23T07:20:33;21.42;;;14.63;;
68655;SDS011;55638;51.122;13.606;2024-03-23T07:22:04;22.42;;;14.32;;
68655;SDS011;55638;51.122;13.606;2024-03-23T07:23:35;24.00;;;16.08;;
68655;SDS011;55638;51.122;13.606;2024-03-23T07:25:06;25.95;;;16.83;;
68655;SDS011;55638;51.122;13.606;2024-03-23T07:28:08;22.17;;;14.73;;
68655;SDS011;55638;51.122;13.606;2024-03-23T07:29:40;22.17;;;14.35;;
68655;SDS011;55638;51.122;13.606;2024-03-23T07:31:11;21.58;;;14.05;;
68655;SDS011;55638;51.122;13.606;2024-03-23T07:32:46;23.00;;;14.43;;
68655;SDS011;55638;51.122;13.606;2024-03-23T07:34:16;23.65;;;15.63;;
68655;SDS011;55638;51.122;13.606;2024-03-23T07:35:47;21.58;;;14.75;;
68655;SDS011;55638;51.122;13.606;2024-03-23T07:37:18;22.90;;;14.90;;
68655;SDS011;55638;51.122;13.606;2024-03-23T07:38:48;23.48;;;15.25;;
68655;SDS011;55638;51.122;13.606;2024-03-23T07:40:19;21.02;;;13.82;;
68655;SDS011;55638;51.122;13.606;2024-03-23T07:41:50;22.23;;;15.32;;
68655;SDS011;55638;51.122;13.606;2024-03-23T07:43:20;24.60;;;15.43;;
68655;SDS011;55638;51.122;13.606;2024-03-23T07:44:51;24.10;;;15.55;;
68655;SDS011;55638;51.122;13.606;2024-03-23T07:46:22;23.80;;;15.35;;
68655;SDS011;55638;51.122;13.606;2024-03-23T07:47:53;22.02;;;15.20;;
68655;SDS011;55638;51.122;13.606;2024-03-23T07:49:24;23.02;;;15.70;;
68655;SDS011;55638;51.122;13.606;2024-03-23T07:51:02;25.10;;;16.25;;
68655;SDS011;55638;51.122;13.606;2024-03-23T07:52:34;25.70;;;16.52;;
68655;SDS011;55638;51.122;13.606;2024-03-23T07:54:05;28.20;;;18.05;;
68655;SDS011;55638;51.122;13.606;2024-03-23T07:55:36;27.58;;;17.90;;
68655;SDS011;55638;51.122;13.606;2024-03-23T07:57:06;26.00;;;17.40;;
68655;SDS011;55638;51.122;13.606;2024-03-23T07:58:38;27.73;;;17.67;;
68655;SDS011;55638;51.122;13.606;2024-03-23T08:00:09;26.75;;;17.92;;
68655;SDS011;55638;51.122;13.606;2024-03-23T08:03:10;25.23;;;17.17;;
68655;SDS011;55638;51.122;13.606;2024-03-23T08:04:41;26.98;;;17.00;;
68655;SDS011;55638;51.122;13.606;2024-03-23T08:06:16;26.05;;;17.08;;
68655;SDS011;55638;51.122;13.606;2024-03-23T08:07:50;21.20;;;15.25;;
68655;SDS011;55638;51.122;13.606;2024-03-23T08:09:21;23.08;;;15.48;;
68655;SDS011;55638;51.122;13.606;2024-03-23T08:10:53;23.05;;;15.00;;
68655;SDS011;55638;51.122;13.606;2024-03-23T08:12:23;19.63;;;14.25;;
68655;SDS011;55638;51.122;13.606;2024-03-23T08:13:54;23.42;;;15.27;;
68655;SDS011;55638;51.122;13.606;2024-03-23T08:16:56;23.97;;;14.77;;
68655;SDS011;55638;51.122;13.606;2024-03-23T08:18:27;22.20;;;16.15;;
68655;SDS011;55638;51.122;13.606;2024-03-23T08:19:58;22.27;;;14.60;;
68655;SDS011;55638;51.122;13.606;2024-03-23T08:21:28;22.85;;;15.85;;
68655;SDS011;55638;51.122;13.606;2024-03-23T08:22:59;21.05;;;15.25;;
68655;SDS011;55638;51.122;13.606;2024-03-23T08:24:30;22.20;;;15.35;;
68655;SDS011;55638;51.122;13.606;2024-03-23T08:26:01;22.95;;;16.00;;
68655;SDS011;55638;51.122;13.606;2024-03-23T08:27:32;28.02;;;17.63;;
68655;SDS011;55638;51.122;13.606;2024-03-23T08:29:03;25.27;;;17.48;;
68655;SDS011;55638;51.122;13.606;2024-03-23T08:30:34;24.10;;;17.67;;
68655;SDS011;55638;51.122;13.606;2024-03-23T08:32:05;23.77;;;16.85;;
68655;SDS011;55638;51.122;13.606;2024-03-23T08:33:36;22.95;;;16.25;;
68655;SDS011;55638;51.122;13.606;2024-03-23T08:35:07;21.20;;;15.68;;
68655;SDS011;55638;51.122;13.606;2024-03-23T08:36:38;21.95;;;16.58;;
68655;SDS011;55638;51.122;13.606;2024-03-23T08:38:09;19.92;;;14.75;;
68655;SDS011;55638;51.122;13.606;2024-03-23T08:39:40;20.25;;;15.52;;
68655;SDS011;55638;51.122;13.606;2024-03-23T08:41:14;23.73;;;16.02;;
68655;SDS011;55638;51.122;13.606;2024-03-23T08:42:45;18.40;;;14.20;;
68655;SDS011;55638;51.122;13.606;2024-03-23T08:44:15;20.90;;;13.90;;
68655;SDS011;55638;51.122;13.606;2024-03-23T08:45:46;21.98;;;14.32;;
68655;SDS011;55638;51.122;13.606;2024-03-23T08:47:17;17.80;;;12.32;;
68655;SDS011;55638;51.122;13.606;2024-03-23T08:50:19;17.88;;;12.73;;
68655;SDS011;55638;51.122;13.606;2024-03-23T08:51:50;18.17;;;13.55;;
68655;SDS011;55638;51.122;13.606;2024-03-23T08:53:20;20.00;;;13.48;;
68655;SDS011;55638;51.122;13.606;2024-03-23T08:54:51;19.80;;;13.90;;
68655;SDS011;55638;51.122;13.606;2024-03-23T08:56:22;18.15;;;13.25;;
68655;SDS011;55638;51.122;13.606;2024-03-23T08:57:53;17.25;;;12.35;;
68655;SDS011;55638;51.122;13.606;2024-03-23T08:59:23;16.85;;;12.02;;
68655;SDS011;55638;51.122;13.606;2024-03-23T09:00:55;17.27;;;11.80;;
68655;SDS011;55638;51.122;13.606;2024-03-23T09:02:26;14.98;;;10.93;;
68655;SDS011;55638;51.122;13.606;2024-03-23T09:03:57;19.30;;;13.07;;
68655;SDS011;55638;51.122;13.606;2024-03-23T09:05:28;18.10;;;12.63;;
68655;SDS011;55638;51.122;13.606;2024-03-23T09:07:01;18.40;;;12.65;;
68655;SDS011;55638;51.122;13.606;2024-03-23T09:08:31;16.58;;;11.95;;
68655;SDS011;55638;51.122;13.606;2024-03-23T09:10:02;14.20;;;10.30;;
68655;SDS011;55638;51.122;13.606;2024-03-23T09:11:33;14.43;;;10.60;;
68655;SDS011;55638;51.122;13.606;2024-03-23T09:13:04;16.55;;;12.48;;
68655;SDS011;55638;51.122;13.606;2024-03-23T09:14:34;14.13;;;10.70;;
68655;SDS011;55638;51.122;13.606;2024-03-23T09:16:05;16.63;;;11.07;;
68655;SDS011;55638;51.122;13.606;2024-03-23T09:17:37;14.80;;;11.07;;
68655;SDS011;55638;51.122;13.606;2024-03-23T09:19:07;15.07;;;11.07;;
68655;SDS011;55638;51.122;13.606;2024-03-23T09:20:38;15.13;;;11.00;;
68655;SDS011;55638;51.122;13.606;2024-03-23T09:22:09;16.70;;;11.43;;
68655;SDS011;55638;51.122;13.606;2024-03-23T09:23:39;16.42;;;11.63;;
68655;SDS011;55638;51.122;13.606;2024-03-23T09:26:41;10.27;;;8.17;;
68655;SDS011;55638;51.122;13.606;2024-03-23T09:28:12;10.15;;;7.65;;
68655;SDS011;55638;51.122;13.606;2024-03-23T09:29:42;9.80;;;7.88;;
68655;SDS011;55638;51.122;13.606;2024-03-23T09:31:13;9.90;;;7.72;;
68655;SDS011;55638;51.122;13.606;2024-03-23T09:32:45;9.35;;;7.05;;
68655;SDS011;55638;51.122;13.606;2024-03-23T09:34:16;9.07;;;6.95;;
68655;SDS011;55638;51.122;13.606;2024-03-23T09:35:47;11.52;;;8.20;;
68655;SDS011;55638;51.122;13.606;2024-03-23T09:37:17;11.73;;;8.23;;
68655;SDS011;55638;51.122;13.606;2024-03-23T09:38:48;12.60;;;8.50;;
68655;SDS011;55638;51.122;13.606;2024-03-23T09:40:19;10.07;;;7.50;;
68655;SDS011;55638;51.122;13.606;2024-03-23T09:43:20;7.83;;;4.23;;
68655;SDS011;55638;51.122;13.606;2024-03-23T09:44:51;4.75;;;3.03;;
68655;SDS011;55638;51.122;13.606;2024-03-23T09:46:22;4.57;;;2.20;;
68655;SDS011;55638;51.122;13.606;2024-03-23T09:47:54;3.63;;;1.80;;
68655;SDS011;55638;51.122;13.606;2024-03-23T09:49:26;4.57;;;1.70;;
68655;SDS011;55638;51.122;13.606;2024-03-23T09:50:57;4.38;;;1.52;;
68655;SDS011;55638;51.122;13.606;2024-03-23T09:52:28;3.13;;;1.42;;
68655;SDS011;55638;51.122;13.606;2024-03-23T09:53:59;3.95;;;1.10;;
68655;SDS011;55638;51.122;13.606;2024-03-23T09:55:29;3.15;;;1.15;;
68655;SDS011;55638;51.122;13.606;2024-03-23T09:57:00;2.92;;;1.35;;
68655;SDS011;55638;51.122;13.606;2024-03-23T09:58:31;2.28;;;1.00;;